createdAt,value
2023-05-10T00:00:40.182Z,99879.38
2023-05-10T00:06:53.589Z,99886.13
2023-05-10T00:09:19.955Z,99883.06
2023-05-10T00:11:46.319Z,99885.63
2023-05-10T00:14:12.795Z,99882.75
2023-05-10T00:16:39.162Z,99880.72
2023-05-10T00:19:05.754Z,99886.28
2023-05-10T00:21:33.030Z,99889.16
2023-05-10T00:23:59.352Z,99887.13
2023-05-10T00:26:25.896Z,99888.47
2023-05-10T00:28:52.280Z,99890.66
2023-05-10T00:31:18.759Z,99888.63
2023-05-10T00:33:45.204Z,99893.84
2023-05-10T00:36:11.736Z,99891.84
2023-05-10T00:38:38.110Z,99888.31
2023-05-10T00:41:04.785Z,99887.13
2023-05-10T00:43:31.144Z,99890.50
2023-05-10T00:45:58.138Z,99895.38
2023-05-10T00:48:24.743Z,99901.25
2023-05-10T00:50:51.119Z,99900.94
2023-05-10T00:53:17.902Z,99902.28
2023-05-10T00:55:44.532Z,99898.56
2023-05-10T00:58:10.884Z,99896.41
2023-05-10T01:00:38.775Z,99891.84
2023-05-10T01:03:05.240Z,99894.19
2023-05-10T01:05:32.829Z,99896.88
2023-05-10T01:07:59.213Z,99890.84
2023-05-10T01:10:25.917Z,99891.00
2023-05-10T01:12:52.530Z,99884.44
2023-05-10T01:15:19.743Z,99893.19
2023-05-10T01:17:48.245Z,99891.00
2023-05-10T01:20:16.255Z,99892.69
2023-05-10T01:23:10.640Z,99898.75
2023-05-10T01:26:01.089Z,99889.66
2023-05-10T01:28:36.593Z,99894.84
2023-05-10T01:31:31.045Z,99896.03
2023-05-10T01:34:07.746Z,99903.63
2023-05-10T01:36:46.484Z,99902.75
2023-05-10T01:39:22.225Z,99901.09
2023-05-10T01:42:29.639Z,99911.16
2023-05-10T01:45:01.603Z,99901.06
2023-05-10T01:47:43.298Z,99904.63
2023-05-10T01:50:19.137Z,99912.69
2023-05-10T01:52:50.929Z,99909.47
2023-05-10T01:55:21.769Z,99916.22
2023-05-10T01:57:53.654Z,99917.34
2023-05-10T02:00:21.210Z,99920.25
2023-05-10T02:02:50.570Z,99931.00
2023-05-10T02:05:18.659Z,99923.59
2023-05-10T02:07:46.370Z,99931.19
2023-05-10T02:10:15.377Z,99932.19
2023-05-10T02:12:46.200Z,99920.38
2023-05-10T02:15:16.394Z,99934.69
2023-05-10T02:17:43.374Z,99934.50
2023-05-10T02:20:11.200Z,99933.66
2023-05-10T02:22:39.022Z,99936.53
2023-05-10T02:25:07.705Z,99928.94
2023-05-10T02:27:34.700Z,99937.00
2023-05-10T02:30:02.028Z,99938.88
2023-05-10T02:32:28.822Z,99931.31
2023-05-10T02:34:56.094Z,99944.25
2023-05-10T02:37:23.198Z,99944.59
2023-05-10T02:39:55.862Z,99942.91
2023-05-10T02:42:27.460Z,99942.22
2023-05-10T02:44:57.806Z,99937.53
2023-05-10T02:47:24.176Z,99944.59
2023-05-10T02:49:50.695Z,99944.59
2023-05-10T02:52:28.283Z,99938.03
2023-05-10T02:54:59.281Z,99934.66
2023-05-10T02:57:32.856Z,99937.53
2023-05-10T02:59:59.449Z,99935.19
2023-05-10T03:02:26.042Z,99938.88
2023-05-10T03:04:52.494Z,99940.38
2023-05-10T03:07:22.050Z,99934.31
2023-05-10T03:09:50.295Z,99945.78
2023-05-10T03:12:27.927Z,99942.91
2023-05-10T03:15:08.719Z,99948.47
2023-05-10T03:17:50.481Z,99937.72
2023-05-10T03:20:30.164Z,99944.59
2023-05-10T03:23:03.605Z,99940.38
2023-05-10T03:25:31.960Z,99943.75
2023-05-10T03:27:59.237Z,99950.47
2023-05-10T03:30:26.333Z,99942.72
2023-05-10T03:32:52.824Z,99959.06
2023-05-10T03:35:19.247Z,99955.53
2023-05-10T03:37:45.752Z,99955.84
2023-05-10T03:40:12.418Z,99964.06
2023-05-10T03:42:38.789Z,99958.69
2023-05-10T03:45:06.803Z,99963.94
2023-05-10T03:47:33.305Z,99966.44
2023-05-10T03:49:59.588Z,99964.44
2023-05-10T03:52:26.242Z,99967.28
2023-05-10T03:54:52.573Z,99969.13
2023-05-10T03:57:18.868Z,99965.59
2023-05-10T03:59:45.856Z,99959.91
2023-05-10T04:02:12.249Z,99966.44
2023-05-10T04:04:38.753Z,99956.53
2023-05-10T04:07:05.169Z,99961.75
2023-05-10T04:09:31.491Z,99959.56
2023-05-10T04:11:59.309Z,99958.38
2023-05-10T04:14:25.660Z,99954.69
2023-05-10T04:16:52.019Z,99967.63
2023-05-10T04:19:18.394Z,99966.13
2023-05-10T04:21:44.933Z,99968.63
2023-05-10T04:24:12.290Z,99971.88
2023-05-10T04:26:39.518Z,99970.50
2023-05-10T04:29:05.917Z,99969.88
2023-05-10T04:31:32.341Z,99976.94
2023-05-10T04:33:58.664Z,99973.22
2023-05-10T04:36:25.000Z,99973.56
2023-05-10T04:38:51.329Z,99972.91
2023-05-10T04:41:17.655Z,99974.91
2023-05-10T04:43:44.050Z,99972.06
2023-05-10T04:46:10.475Z,99978.78
2023-05-10T04:48:36.830Z,99977.91
2023-05-10T04:51:04.818Z,99982.97
2023-05-10T04:53:31.291Z,99987.34
2023-05-10T04:55:57.608Z,99996.44
2023-05-10T04:58:24.136Z,99991.91
2023-05-10T05:00:50.956Z,99987.69
2023-05-10T05:03:17.494Z,99977.06
2023-05-10T05:05:45.003Z,99990.72
2023-05-10T05:08:11.399Z,99997.63
2023-05-10T05:10:37.778Z,99992.88
2023-05-10T05:13:04.141Z,100002.16
2023-05-10T05:15:31.481Z,100003.84
2023-05-10T05:17:58.155Z,100001.50
2023-05-10T05:20:24.578Z,100002.16
2023-05-10T05:22:50.900Z,100004.53
2023-05-10T05:25:17.382Z,100013.78
2023-05-10T05:27:43.749Z,100008.72
2023-05-10T05:30:10.782Z,100011.06
2023-05-10T05:32:37.121Z,100015.63
2023-05-10T05:35:03.657Z,100023.38
2023-05-10T05:37:29.985Z,100019.53
2023-05-10T05:39:56.289Z,100018.53
2023-05-10T05:42:22.629Z,100017.81
2023-05-10T05:44:49.033Z,100030.97
2023-05-10T05:47:15.390Z,100027.59
2023-05-10T05:49:41.810Z,100022.91
2023-05-10T05:52:08.144Z,100028.63
2023-05-10T05:54:34.614Z,100024.91
2023-05-10T05:57:01.760Z,100041.25
2023-05-10T05:59:28.469Z,100041.94
2023-05-10T06:01:55.056Z,100038.59
2023-05-10T06:04:21.579Z,100046.69
2023-05-10T06:06:47.904Z,100040.13
2023-05-10T06:09:14.297Z,100050.41
2023-05-10T06:11:40.793Z,100043.31
2023-05-10T06:14:08.619Z,100048.53
2023-05-10T06:16:35.573Z,100049.91
2023-05-10T06:19:02.217Z,100052.22
2023-05-10T06:21:28.633Z,100059.47
2023-05-10T06:23:54.957Z,100064.00
2023-05-10T06:26:21.844Z,100064.84
2023-05-10T06:28:48.215Z,100070.91
2023-05-10T06:31:14.605Z,100074.28
2023-05-10T06:33:41.503Z,100074.66
2023-05-10T06:36:08.003Z,100078.69
2023-05-10T06:38:34.563Z,100074.00
2023-05-10T06:41:01.522Z,100080.72
2023-05-10T06:43:29.443Z,100078.56
2023-05-10T06:45:55.889Z,100083.25
2023-05-10T06:48:22.418Z,100084.47
2023-05-10T06:50:48.932Z,100089.38
2023-05-10T06:53:15.275Z,100083.31
2023-05-10T06:55:41.761Z,100088.88
2023-05-10T06:58:08.119Z,100081.84
2023-05-10T07:00:34.757Z,100085.06
2023-05-10T07:03:03.357Z,100086.59
2023-05-10T07:05:30.389Z,100090.47
2023-05-10T07:07:56.788Z,100093.69
2023-05-10T07:10:23.127Z,100094.69
2023-05-10T07:12:49.617Z,100096.38
2023-05-10T07:15:17.099Z,100103.13
2023-05-10T07:17:45.704Z,100090.81
2023-05-10T07:20:13.083Z,100100.06
2023-05-10T07:22:39.445Z,100099.41
2023-05-10T07:25:06.391Z,100107.00
2023-05-10T07:27:35.846Z,100104.97
2023-05-10T07:30:02.414Z,100112.22
2023-05-10T07:32:28.850Z,100101.94
2023-05-10T07:34:55.357Z,100109.53
2023-05-10T07:37:21.704Z,100105.97
2023-05-10T07:39:48.066Z,100117.25
2023-05-10T07:42:14.895Z,100115.22
2023-05-10T07:44:41.183Z,100120.13
2023-05-10T07:47:07.460Z,100122.47
2023-05-10T07:49:33.777Z,100114.53
2023-05-10T07:52:00.081Z,100118.41
2023-05-10T07:54:26.930Z,100113.16
2023-05-10T07:56:53.245Z,100116.84
2023-05-10T07:59:19.622Z,100120.41
2023-05-10T08:01:46.068Z,100123.06
2023-05-10T08:04:12.720Z,100120.03
2023-05-10T08:06:39.240Z,100123.59
2023-05-10T08:09:05.718Z,100117.81
2023-05-10T08:11:33.712Z,100124.44
2023-05-10T08:14:01.243Z,100123.91
2023-05-10T08:16:27.778Z,100121.03
2023-05-10T08:18:56.120Z,100123.72
2023-05-10T08:21:22.505Z,100126.13
2023-05-10T08:23:49.863Z,100124.94
2023-05-10T08:26:16.329Z,100125.59
2023-05-10T08:28:42.658Z,100124.06
2023-05-10T08:31:09.084Z,100121.88
2023-05-10T08:33:35.571Z,100127.28
2023-05-10T08:36:01.946Z,100129.31
2023-05-10T08:38:28.321Z,100139.31
2023-05-10T08:40:59.377Z,100132.03
2023-05-10T08:43:29.969Z,100128.31
2023-05-10T08:45:59.954Z,100126.69
2023-05-10T08:48:29.791Z,100130.06
2023-05-10T08:50:59.834Z,100135.28
2023-05-10T08:53:28.163Z,100136.75
2023-05-10T08:55:55.237Z,100133.19
2023-05-10T08:58:21.706Z,100136.88
2023-05-10T09:00:50.368Z,100139.31
2023-05-10T09:03:16.969Z,100138.78
2023-05-10T09:05:43.499Z,100138.44
2023-05-10T09:08:10.301Z,100143.16
2023-05-10T09:10:37.840Z,100140.94
2023-05-10T09:13:04.850Z,100139.84
2023-05-10T09:15:31.813Z,100142.91
2023-05-10T09:18:00.416Z,100141.22
2023-05-10T09:20:26.801Z,100148.47
2023-05-10T09:22:53.142Z,100152.38
2023-05-10T09:25:20.180Z,100147.16
2023-05-10T09:27:48.333Z,100159.75
2023-05-10T09:30:26.548Z,100158.91
2023-05-10T09:32:53.781Z,100163.31
2023-05-10T09:35:22.518Z,100170.19
2023-05-10T09:37:51.550Z,100162.88
2023-05-10T09:40:21.060Z,100165.38
2023-05-10T09:43:00.671Z,100170.28
2023-05-10T09:45:32.107Z,100176.50
2023-05-10T09:48:00.172Z,100164.75
2023-05-10T09:50:27.529Z,100167.06
2023-05-10T09:53:01.932Z,100170.94
2023-05-10T09:55:37.127Z,100164.66
2023-05-10T09:58:03.514Z,100167.16
2023-05-10T10:00:36.665Z,100175.38
2023-05-10T10:03:04.251Z,100175.31
2023-05-10T10:05:32.305Z,100176.09
2023-05-10T10:07:59.797Z,100182.28
2023-05-10T10:10:27.197Z,100172.78
2023-05-10T10:12:54.526Z,100175.81
2023-05-10T10:15:25.004Z,100169.31
2023-05-10T10:17:52.879Z,100173.59
2023-05-10T10:20:21.199Z,100179.84
2023-05-10T10:22:48.705Z,100181.97
2023-05-10T10:25:17.587Z,100190.69
2023-05-10T10:27:54.213Z,100185.00
2023-05-10T10:30:36.283Z,100187.06
2023-05-10T10:33:30.680Z,100200.81
2023-05-10T10:36:00.949Z,100192.69
2023-05-10T10:38:38.011Z,100208.47
2023-05-10T10:41:11.444Z,100200.16
2023-05-10T10:43:37.799Z,100205.28
2023-05-10T10:46:17.978Z,100199.38
2023-05-10T10:49:08.880Z,100207.34
2023-05-10T10:51:39.029Z,100209.16
2023-05-10T10:54:11.911Z,100210.38
2023-05-10T10:56:38.435Z,100212.38
2023-05-10T10:59:05.132Z,100210.84
2023-05-10T11:01:38.156Z,100201.75
2023-05-10T11:04:04.580Z,100207.97
2023-05-10T11:06:36.470Z,100213.19
2023-05-10T11:09:10.766Z,100209.31
2023-05-10T11:11:49.621Z,100202.06
2023-05-10T11:14:21.302Z,100201.31
2023-05-10T11:16:47.872Z,100207.31
2023-05-10T11:19:16.289Z,100202.84
2023-05-10T11:21:46.565Z,100198.75
2023-05-10T11:24:18.413Z,100207.44
2023-05-10T11:26:45.947Z,100198.69
2023-05-10T11:29:14.493Z,100210.28
2023-05-10T11:31:47.936Z,100207.22
2023-05-10T11:34:28.057Z,100210.50
2023-05-10T11:36:56.220Z,100202.16
2023-05-10T11:39:26.326Z,100211.97
2023-05-10T11:41:52.713Z,100211.28
2023-05-10T11:44:19.154Z,100211.16
2023-05-10T11:46:45.750Z,100213.66
2023-05-10T11:49:14.108Z,100212.34
2023-05-10T11:51:40.776Z,100208.19
2023-05-10T11:54:13.005Z,100192.31
2023-05-10T11:56:40.962Z,100199.06
2023-05-10T11:59:08.763Z,100198.28
2023-05-10T12:01:36.080Z,100202.53
2023-05-10T12:04:02.994Z,100204.88
2023-05-10T12:06:32.139Z,100213.16
2023-05-10T12:08:59.516Z,100209.69
2023-05-10T12:11:28.604Z,100213.75
2023-05-10T12:13:56.991Z,100212.13
2023-05-10T12:16:29.797Z,100221.25
2023-05-10T12:19:01.261Z,100215.06
2023-05-10T12:21:31.287Z,100217.00
2023-05-10T12:24:03.236Z,100216.88
2023-05-10T12:26:30.236Z,100222.22
2023-05-10T12:29:15.266Z,100224.34
2023-05-10T12:31:51.855Z,100220.81
2023-05-10T12:34:31.131Z,100224.56
2023-05-10T12:36:57.546Z,100230.38
2023-05-10T12:39:24.584Z,100232.19
2023-05-10T12:41:51.707Z,100236.25
2023-05-10T12:44:18.656Z,100240.44
2023-05-10T12:46:45.031Z,100244.41
2023-05-10T12:49:11.463Z,100242.88
2023-05-10T12:51:37.852Z,100248.94
2023-05-10T12:54:04.642Z,100247.72
2023-05-10T12:56:31.035Z,100248.56
2023-05-10T12:58:57.352Z,100250.78
2023-05-10T13:01:23.786Z,100249.06
2023-05-10T13:03:50.260Z,100247.03
2023-05-10T13:06:16.582Z,100247.50
2023-05-10T13:08:42.873Z,100249.28
2023-05-10T13:11:09.281Z,100250.53
2023-05-10T13:13:35.649Z,100240.34
2023-05-10T13:16:02.000Z,100242.28
2023-05-10T13:18:28.455Z,100243.88
2023-05-10T13:20:55.071Z,100244.88
2023-05-10T13:23:21.394Z,100234.78
2023-05-10T13:25:48.275Z,100240.94
2023-05-10T13:28:14.702Z,100241.25
2023-05-10T13:30:41.077Z,100247.50
2023-05-10T13:33:07.486Z,100235.59
2023-05-10T13:35:33.929Z,100236.41
2023-05-10T13:38:00.264Z,100240.34
2023-05-10T13:40:26.564Z,100231.84
2023-05-10T13:42:53.860Z,100238.25
2023-05-10T13:45:20.599Z,100241.25
2023-05-10T13:47:46.980Z,100238.97
2023-05-10T13:50:13.318Z,100236.44
2023-05-10T13:52:39.634Z,100240.44
2023-05-10T13:55:06.360Z,100237.06
2023-05-10T13:57:32.677Z,100234.31
2023-05-10T13:59:59.095Z,100233.03
2023-05-10T14:02:26.781Z,100240.16
2023-05-10T14:04:53.178Z,100237.19
2023-05-10T14:07:20.252Z,100231.53
2023-05-10T14:09:46.581Z,100232.31
2023-05-10T14:12:12.985Z,100224.53
2023-05-10T14:14:39.931Z,100228.28
2023-05-10T14:17:06.347Z,100221.13
2023-05-10T14:19:34.515Z,100230.34
2023-05-10T14:22:01.024Z,100224.84
2023-05-10T14:24:27.459Z,100221.13
2023-05-10T14:26:56.477Z,100220.41
2023-05-10T14:29:22.967Z,100220.97
2023-05-10T14:31:49.382Z,100224.38
2023-05-10T14:34:15.756Z,100225.69
2023-05-10T14:36:42.085Z,100222.97
2023-05-10T14:39:10.777Z,100219.19
2023-05-10T14:41:37.969Z,100216.63
2023-05-10T14:44:04.342Z,100220.13
2023-05-10T14:46:30.922Z,100221.59
2023-05-10T14:48:57.313Z,100219.88
2023-05-10T14:51:23.727Z,100220.69
2023-05-10T14:53:50.381Z,100213.25
2023-05-10T14:56:16.718Z,100216.84
2023-05-10T14:58:43.068Z,100218.19
2023-05-10T15:01:09.677Z,100211.22
2023-05-10T15:03:36.724Z,100209.03
2023-05-10T15:06:04.841Z,100205.88
2023-05-10T15:08:31.141Z,100210.66
2023-05-10T15:10:57.807Z,100210.66
2023-05-10T15:13:24.216Z,100211.47
2023-05-10T15:15:50.793Z,100200.69
2023-05-10T15:18:17.833Z,100209.41
2023-05-10T15:20:44.240Z,100216.72
2023-05-10T15:23:10.618Z,100211.75
2023-05-10T15:25:38.148Z,100210.06
2023-05-10T15:28:05.201Z,100215.84
2023-05-10T15:30:31.569Z,100212.88
2023-05-10T15:32:58.005Z,100221.22
2023-05-10T15:35:24.601Z,100218.88
2023-05-10T15:37:51.242Z,100219.53
2023-05-10T15:40:18.179Z,100227.16
2023-05-10T15:42:44.548Z,100222.06
2023-05-10T15:45:12.061Z,100228.66
2023-05-10T15:47:40.534Z,100228.44
2023-05-10T15:50:07.703Z,100225.47
2023-05-10T15:52:34.354Z,100224.88
2023-05-10T15:55:00.664Z,100218.03
2023-05-10T15:57:27.150Z,100220.94
2023-05-10T15:59:53.632Z,100223.47
2023-05-10T16:02:20.026Z,100227.31
2023-05-10T16:04:46.422Z,100231.19
2023-05-10T16:07:12.761Z,100232.88
2023-05-10T16:09:39.056Z,100233.09
2023-05-10T16:12:05.548Z,100233.25
2023-05-10T16:14:31.919Z,100230.75
2023-05-10T16:16:58.371Z,100228.03
2023-05-10T16:19:25.477Z,100243.81
2023-05-10T16:21:53.050Z,100234.34
2023-05-10T16:24:19.365Z,100232.81
2023-05-10T16:26:45.933Z,100244.16
2023-05-10T16:29:12.319Z,100239.22
2023-05-10T16:31:38.990Z,100247.44
2023-05-10T16:34:05.414Z,100243.34
2023-05-10T16:36:33.351Z,100248.22
2023-05-10T16:39:00.266Z,100250.44
2023-05-10T16:41:26.728Z,100244.22
2023-05-10T16:43:53.064Z,100240.34
2023-05-10T16:46:19.485Z,100242.47
2023-05-10T16:48:46.022Z,100246.47
2023-05-10T16:51:12.479Z,100251.47
2023-05-10T16:53:38.855Z,100244.09
2023-05-10T16:56:05.488Z,100249.03
2023-05-10T16:58:31.810Z,100252.09
2023-05-10T17:00:58.144Z,100252.28
2023-05-10T17:03:24.657Z,100254.06
2023-05-10T17:05:51.439Z,100256.09
2023-05-10T17:08:17.867Z,100258.06
2023-05-10T17:10:44.173Z,100255.66
2023-05-10T17:13:10.862Z,100259.56
2023-05-10T17:15:38.551Z,100260.03
2023-05-10T17:18:05.511Z,100258.72
2023-05-10T17:20:32.059Z,100254.06
2023-05-10T17:22:58.525Z,100260.41
2023-05-10T17:25:24.899Z,100264.75
2023-05-10T17:27:51.190Z,100268.88
2023-05-10T17:30:22.386Z,100258.56
2023-05-10T17:32:48.858Z,100257.00
2023-05-10T17:35:15.337Z,100262.44
2023-05-10T17:37:41.815Z,100265.97
2023-05-10T17:40:09.908Z,100264.03
2023-05-10T17:42:36.345Z,100261.59
2023-05-10T17:45:03.699Z,100263.38
2023-05-10T17:47:30.192Z,100266.47
2023-05-10T17:49:56.601Z,100272.84
2023-05-10T17:52:22.995Z,100266.31
2023-05-10T17:54:49.314Z,100268.84
2023-05-10T17:57:15.653Z,100272.19
2023-05-10T17:59:42.032Z,100272.94
2023-05-10T18:02:08.441Z,100275.09
2023-05-10T18:04:35.458Z,100278.38
2023-05-10T18:07:01.987Z,100271.94
2023-05-10T18:09:29.153Z,100275.19
2023-05-10T18:11:55.606Z,100277.44
2023-05-10T18:14:35.817Z,100275.56
2023-05-10T18:17:05.932Z,100273.88
2023-05-10T18:19:32.359Z,100274.44
2023-05-10T18:21:58.728Z,100278.06
2023-05-10T18:24:37.518Z,100273.31
2023-05-10T18:27:05.879Z,100281.03
2023-05-10T18:29:32.568Z,100275.66
2023-05-10T18:31:59.006Z,100281.94
2023-05-10T18:34:25.417Z,100282.13
2023-05-10T18:36:52.287Z,100278.63
2023-05-10T18:39:18.874Z,100279.28
2023-05-10T18:41:45.639Z,100281.13
2023-05-10T18:44:12.001Z,100277.66
2023-05-10T18:46:38.444Z,100284.09
2023-05-10T18:49:05.698Z,100278.50
2023-05-10T18:51:32.089Z,100288.88
2023-05-10T18:53:58.458Z,100289.63
2023-05-10T18:56:24.897Z,100295.56
2023-05-10T18:58:51.284Z,100300.53
2023-05-10T19:01:17.772Z,100296.00
2023-05-10T19:03:44.197Z,100293.34
2023-05-10T19:06:11.282Z,100297.13
2023-05-10T19:08:37.586Z,100295.06
2023-05-10T19:11:03.883Z,100307.81
2023-05-10T19:13:30.360Z,100308.31
2023-05-10T19:16:04.490Z,100314.13
2023-05-10T19:18:31.141Z,100311.25
2023-05-10T19:20:57.573Z,100309.06
2023-05-10T19:23:24.070Z,100313.44
2023-05-10T19:25:50.553Z,100305.84
2023-05-10T19:28:17.410Z,100315.84
2023-05-10T19:30:43.767Z,100318.25
2023-05-10T19:33:10.413Z,100321.28
2023-05-10T19:35:37.282Z,100314.25
2023-05-10T19:38:03.669Z,100322.91
2023-05-10T19:40:30.104Z,100325.44
2023-05-10T19:42:57.046Z,100316.16
2023-05-10T19:45:23.428Z,100328.50
2023-05-10T19:47:50.185Z,100323.44
2023-05-10T19:50:18.253Z,100327.16
2023-05-10T19:52:45.129Z,100335.78
2023-05-10T19:55:24.810Z,100332.06
2023-05-10T19:57:51.114Z,100333.59
2023-05-10T20:00:17.765Z,100336.47
2023-05-10T20:02:44.260Z,100337.97
2023-05-10T20:05:10.615Z,100344.06
2023-05-10T20:07:37.138Z,100344.56
2023-05-10T20:10:04.052Z,100345.75
2023-05-10T20:12:30.413Z,100349.47
2023-05-10T20:14:57.077Z,100351.84
2023-05-10T20:17:23.474Z,100354.03
2023-05-10T20:19:49.779Z,100355.38
2023-05-10T20:22:16.515Z,100367.38
2023-05-10T20:24:42.866Z,100359.25
2023-05-10T20:27:09.171Z,100360.44
2023-05-10T20:29:35.787Z,100370.19
2023-05-10T20:32:02.146Z,100370.34
2023-05-10T20:34:28.770Z,100361.03
2023-05-10T20:36:55.065Z,100365.22
2023-05-10T20:39:21.388Z,100363.19
2023-05-10T20:41:47.905Z,100356.94
2023-05-10T20:44:14.199Z,100360.97
2023-05-10T20:46:40.653Z,100355.06
2023-05-10T20:49:08.705Z,100361.47
2023-05-10T20:51:35.032Z,100358.03
2023-05-10T20:54:02.526Z,100365.16
2023-05-10T20:56:28.924Z,100365.44
2023-05-10T20:58:55.260Z,100364.31
2023-05-10T21:01:21.655Z,100353.47
2023-05-10T21:03:48.176Z,100368.81
2023-05-10T21:06:14.495Z,100365.44
2023-05-10T21:08:40.802Z,100369.50
2023-05-10T21:11:07.241Z,100369.13
2023-05-10T21:13:33.587Z,100368.25
2023-05-10T21:16:00.232Z,100360.31
2023-05-10T21:18:26.689Z,100366.34
2023-05-10T21:20:53.041Z,100356.72
2023-05-10T21:23:19.381Z,100364.78
2023-05-10T21:25:45.842Z,100350.41
2023-05-10T21:28:12.195Z,100361.19
2023-05-10T21:30:38.529Z,100352.06
2023-05-10T21:33:04.874Z,100361.38
2023-05-10T21:35:31.516Z,100357.97
2023-05-10T21:37:58.369Z,100359.09
2023-05-10T21:40:24.742Z,100365.66
2023-05-10T21:42:51.256Z,100366.59
2023-05-10T21:45:19.227Z,100359.69
2023-05-10T21:47:45.837Z,100366.22
2023-05-10T21:50:12.591Z,100368.06
2023-05-10T21:52:39.471Z,100356.94
2023-05-10T21:55:06.492Z,100371.16
2023-05-10T21:57:32.804Z,100362.50
2023-05-10T21:59:59.081Z,100365.84
2023-05-10T22:02:25.587Z,100370.16
2023-05-10T22:04:52.050Z,100368.00
2023-05-10T22:07:18.419Z,100365.94
2023-05-10T22:09:44.736Z,100365.31
2023-05-10T22:12:11.973Z,100366.50
2023-05-10T22:14:38.325Z,100368.94
2023-05-10T22:17:04.806Z,100370.78
2023-05-10T22:19:31.218Z,100369.63
2023-05-10T22:21:57.543Z,100375.25
2023-05-10T22:24:23.908Z,100367.66
2023-05-10T22:26:50.222Z,100368.88
2023-05-10T22:29:16.841Z,100373.56
2023-05-10T22:31:43.133Z,100373.91
2023-05-10T22:34:09.442Z,100377.34
2023-05-10T22:36:36.283Z,100371.53
2023-05-10T22:39:02.646Z,100369.94
2023-05-10T22:41:29.047Z,100373.38
2023-05-10T22:43:55.422Z,100378.75
2023-05-10T22:46:21.776Z,100373.47
2023-05-10T22:48:48.200Z,100379.53
2023-05-10T22:51:14.514Z,100382.38
2023-05-10T22:53:41.228Z,100380.69
2023-05-10T22:56:07.648Z,100381.97
2023-05-10T22:58:34.162Z,100381.38
2023-05-10T23:01:00.617Z,100377.91
2023-05-10T23:03:27.046Z,100386.13
2023-05-10T23:05:53.383Z,100386.47
2023-05-10T23:08:19.713Z,100387.16
2023-05-10T23:10:46.197Z,100391.78
2023-05-10T23:13:13.141Z,100392.25
2023-05-10T23:15:40.246Z,100385.63
2023-05-10T23:18:06.698Z,100402.75
2023-05-10T23:20:33.222Z,100405.16
2023-05-10T23:22:59.569Z,100407.84
2023-05-10T23:25:26.032Z,100405.91
2023-05-10T23:27:52.348Z,100395.63
2023-05-10T23:30:18.865Z,100398.69
2023-05-10T23:32:45.409Z,100404.09
2023-05-10T23:35:11.874Z,100402.25
2023-05-10T23:37:38.215Z,100395.63
2023-05-10T23:40:05.088Z,100395.88
2023-05-10T23:42:32.340Z,100396.72
2023-05-10T23:44:58.673Z,100387.53
2023-05-10T23:47:25.200Z,100385.13
2023-05-10T23:49:51.582Z,100393.63
2023-05-10T23:52:17.977Z,100385.53
2023-05-10T23:54:45.848Z,100389.53
2023-05-10T23:57:12.351Z,100384.44
2023-05-10T23:59:38.636Z,100388.66
